Time;durP1;ratioP1;P1;durP2;ratioP2;P2;SDS_P1;SDS_P2;PMS_P1;PMS_P2;Temp;Humidity;BMP_temperature;BMP_pressure;BME280_temperature;BME280_humidity;BME280_pressure;Samples;Min_cycle;Max_cycle;Signal;HPM_P1;HPM_P2
2021/06/21 00:01:45;;;;;;;1.17;1.08;;;27.40;49.80;;;31.16;33.42;100627.56;5157172;27;20049;-52
2021/06/21 00:04:11;;;;;;;1.17;1.15;;;27.30;49.70;;;31.14;33.39;100626.88;5138313;27;20051;-48
2021/06/21 00:06:37;;;;;;;1.10;1.00;;;27.40;49.80;;;31.15;33.34;100623.16;5157444;27;20047;-51
2021/06/21 00:09:05;;;;;;;1.20;1.20;;;27.30;49.80;;;31.14;33.38;100614.22;5156905;27;20576;-52
2021/06/21 00:11:31;;;;;;;1.15;1.10;;;27.30;49.80;;;31.13;33.37;100609.00;5156845;27;20077;-53
2021/06/21 00:13:56;;;;;;;1.27;1.17;;;27.30;49.80;;;31.09;33.39;100599.53;5156619;27;20050;-49
2021/06/21 00:16:22;;;;;;;1.40;1.30;;;27.30;49.90;;;31.11;33.49;100609.16;5156859;27;20065;-54
2021/06/21 00:18:48;;;;;;;1.38;1.27;;;27.30;49.80;;;31.09;33.45;100602.22;5156753;27;20050;-50
2021/06/21 00:21:15;;;;;;;1.30;1.20;;;27.30;49.90;;;31.07;33.38;100604.25;5136433;27;20043;-50
2021/06/21 00:23:41;;;;;;;1.00;1.00;;;27.30;49.90;;;31.06;33.51;100616.94;5157020;27;20051;-52
2021/06/21 00:26:07;;;;;;;1.10;1.00;;;27.30;49.90;;;31.06;33.44;100627.72;5156647;27;20397;-50
2021/06/21 00:28:33;;;;;;;1.13;1.00;;;27.20;49.90;;;31.05;33.41;100628.72;5156543;27;20078;-54
2021/06/21 00:30:58;;;;;;;1.20;1.15;;;27.20;49.90;;;31.02;33.52;100616.41;5138051;27;20099;-49
2021/06/21 00:33:24;;;;;;;1.15;1.15;;;27.20;50.00;;;31.00;33.71;100622.97;5156533;27;20057;-54
2021/06/21 00:35:50;;;;;;;1.05;1.05;;;27.20;50.00;;;30.97;33.38;100626.88;5156450;27;20146;-52
2021/06/21 00:38:16;;;;;;;1.20;1.10;;;27.20;50.00;;;30.99;33.62;100640.19;5156922;27;20147;-49
2021/06/21 00:40:42;;;;;;;1.48;1.38;;;27.20;50.00;;;30.97;33.66;100631.41;5156376;27;20396;-54
2021/06/21 00:43:08;;;;;;;1.23;1.15;;;27.20;50.10;;;30.97;33.60;100640.38;5155720;27;20046;-50
2021/06/21 00:45:34;;;;;;;1.20;1.00;;;27.20;50.10;;;30.95;33.56;100641.53;5156181;27;20460;-52
2021/06/21 00:47:59;;;;;;;1.17;1.10;;;27.20;50.10;;;30.92;33.70;100629.19;5156514;27;20142;-49
2021/06/21 00:50:28;;;;;;;1.20;1.10;;;27.20;50.10;;;30.91;33.65;100634.78;5156859;27;20049;-52
2021/06/21 00:52:57;;;;;;;1.10;1.10;;;27.10;50.10;;;30.90;33.69;100635.78;5137746;27;20133;-52
2021/06/21 00:55:24;;;;;;;1.20;1.13;;;27.20;50.20;;;30.92;33.68;100637.28;5156140;27;20042;-52
2021/06/21 00:57:50;;;;;;;1.17;1.10;;;27.10;50.20;;;30.89;33.86;100636.78;5156055;27;20479;-48
2021/06/21 01:00:20;;;;;;;1.00;1.00;;;27.10;50.20;;;30.86;33.73;100635.25;5156181;27;20053;-49
2021/06/21 01:02:47;;;;;;;1.23;1.13;;;27.10;50.20;;;30.87;33.82;100633.41;5156545;27;20049;-52
2021/06/21 01:05:27;;;;;;;1.13;1.10;;;27.10;50.20;;;30.84;33.72;100623.78;5156050;27;20088;-49
2021/06/21 01:07:53;;;;;;;0.90;0.90;;;27.10;50.20;;;30.84;33.79;100623.78;5156336;27;20081;-48
2021/06/21 01:10:23;;;;;;;0.98;0.98;;;27.10;50.20;;;30.81;33.79;100616.84;5156566;27;20039;-49
2021/06/21 01:13:11;;;;;;;1.10;1.00;;;27.10;50.30;;;30.79;33.73;100610.78;5156112;27;20046;-46
2021/06/21 01:15:44;;;;;;;1.30;1.20;;;27.00;50.20;;;30.79;33.73;100604.53;5136205;27;20134;-49
2021/06/21 01:18:17;;;;;;;0.88;0.88;;;27.00;50.30;;;30.77;33.92;100599.31;5155694;27;20054;-53
2021/06/21 01:21:02;;;;;;;1.50;1.40;;;27.00;50.30;;;30.74;33.82;100590.69;5137309;27;20055;-51
2021/06/21 01:23:59;;;;;;;1.30;1.20;;;27.00;50.40;;;30.74;33.86;100583.47;5156065;27;20057;-45
2021/06/21 01:26:51;;;;;;;1.17;1.17;;;27.00;50.40;;;30.73;33.76;100575.53;5156030;27;20476;-47
2021/06/21 01:30:03;;;;;;;1.27;1.17;;;27.00;50.40;;;30.70;34.05;100560.50;5137180;27;20050;-52
2021/06/21 01:32:39;;;;;;;;;;;27.00;50.40;;;30.81;33.72;100553.94;5156399;27;20148;-49
2021/06/21 01:35:07;;;;;;;1.20;0.98;;;27.00;50.50;;;30.73;33.76;100554.78;5137362;27;20353;-51
2021/06/21 01:37:33;;;;;;;1.05;1.05;;;27.00;50.50;;;30.71;34.00;100567.59;5155539;27;20523;-52
2021/06/21 01:40:01;;;;;;;1.20;1.10;;;27.00;50.50;;;30.68;34.12;100554.44;5137366;27;20043;-51
2021/06/21 01:42:27;;;;;;;0.90;0.90;;;26.90;50.40;;;30.67;34.10;100559.00;5135666;27;20047;-48
2021/06/21 01:45:08;;;;;;;1.00;1.00;;;26.90;50.40;;;30.62;34.08;100555.94;5137020;27;20043;-52
2021/06/21 01:47:35;;;;;;;1.27;1.20;;;26.90;50.50;;;30.63;33.97;100557.63;5155212;27;20054;-52
2021/06/21 01:50:03;;;;;;;1.00;1.00;;;26.90;50.40;;;30.62;33.95;100547.00;5155263;27;20038;-50
2021/06/21 01:52:40;;;;;;;0.90;0.90;;;26.90;50.50;;;30.59;34.15;100548.19;5155517;27;20117;-53
2021/06/21 01:55:08;;;;;;;1.13;1.10;;;26.90;50.50;;;30.61;34.15;100545.31;5154440;27;20039;-52
2021/06/21 01:57:36;;;;;;;1.00;1.00;;;26.90;50.50;;;30.58;34.19;100542.94;5155098;27;20151;-51
2021/06/21 02:00:09;;;;;;;1.10;1.00;;;26.90;50.60;;;30.57;34.23;100558.31;5137192;27;20046;-51
2021/06/21 02:02:36;;;;;;;1.23;1.13;;;26.80;50.50;;;30.56;34.08;100542.28;5155766;27;20043;-53
2021/06/21 02:05:05;;;;;;;0.98;0.98;;;26.90;50.70;;;30.57;34.17;100535.84;5135782;27;20145;-48
2021/06/21 02:07:33;;;;;;;1.20;1.10;;;26.80;50.50;;;30.57;34.16;100541.25;5154974;27;20050;-46
2021/06/21 02:10:00;;;;;;;1.17;1.08;;;26.80;50.50;;;30.53;34.10;100535.34;5137135;27;20054;-53
2021/06/21 02:12:27;;;;;;;0.93;0.93;;;26.80;50.60;;;30.54;34.31;100534.34;5136537;27;20042;-45
2021/06/21 02:14:54;;;;;;;1.55;1.10;;;26.80;50.60;;;30.52;34.22;100527.41;5154916;27;20103;-51
2021/06/21 02:17:23;;;;;;;1.15;1.05;;;26.80;50.60;;;30.51;34.31;100525.75;5135669;27;20065;-49
2021/06/21 02:19:54;;;;;;;0.80;0.80;;;26.80;50.70;;;30.48;34.25;100533.13;5155379;27;20043;-53
2021/06/21 02:22:28;;;;;;;1.10;1.10;;;26.80;50.60;;;30.47;34.20;100525.22;5155424;27;20053;-51
2021/06/21 02:24:57;;;;;;;0.95;0.95;;;26.80;50.70;;;30.47;34.38;100522.50;5155249;27;20392;-48
2021/06/21 02:27:24;;;;;;;1.15;0.90;;;26.80;51.20;;;30.44;34.38;100507.53;5154671;27;20095;-50
2021/06/21 02:29:52;;;;;;;0.90;0.90;;;26.80;50.70;;;30.44;34.19;100507.53;5154635;27;20042;-51
2021/06/21 02:32:19;;;;;;;0.80;0.80;;;26.80;50.80;;;30.45;34.27;100508.34;5135417;27;20058;-46
2021/06/21 02:34:45;;;;;;;1.38;1.00;;;26.80;50.80;;;30.47;34.29;100515.28;5136188;27;20492;-50
2021/06/21 02:37:11;;;;;;;0.80;0.80;;;26.70;50.60;;;30.43;34.34;100502.28;5154882;27;20054;-52
2021/06/21 02:39:38;;;;;;;1.67;1.20;;;26.70;50.70;;;30.40;34.27;100502.63;5154528;27;20550;-49
2021/06/21 02:42:05;;;;;;;0.98;0.98;;;26.70;50.70;;;30.39;34.09;100519.78;5154474;27;20046;-48
2021/06/21 02:44:31;;;;;;;0.85;0.85;;;26.70;50.80;;;30.41;34.35;100528.59;5154805;27;20107;-48
2021/06/21 02:46:57;;;;;;;0.90;0.90;;;26.70;50.80;;;30.42;34.38;100543.75;5154393;27;20053;-53
2021/06/21 02:49:24;;;;;;;1.17;1.00;;;26.70;50.80;;;30.41;34.57;100542.91;5135323;27;20047;-53
2021/06/21 02:51:59;;;;;;;1.00;1.00;;;26.70;50.80;;;30.37;34.31;100546.97;5134771;27;20110;-50
2021/06/21 02:54:35;;;;;;;0.98;0.98;;;26.70;50.60;;;30.35;34.33;100554.31;5136183;27;20360;-51
2021/06/21 02:57:20;;;;;;;0.90;0.90;;;26.70;50.60;;;30.37;34.35;100563.16;5135828;27;20050;-49
2021/06/21 02:59:47;;;;;;;1.20;1.10;;;26.60;50.70;;;30.37;34.29;100564.97;5136094;27;20133;-53
2021/06/21 03:02:16;;;;;;;0.90;0.90;;;26.60;50.70;;;30.34;34.31;100562.56;5154761;27;20383;-51
2021/06/21 03:04:44;;;;;;;1.10;1.00;;;26.60;50.80;;;30.33;34.30;100564.44;5154045;27;20513;-53
2021/06/21 03:07:14;;;;;;;0.95;0.95;;;26.60;50.90;;;30.34;34.40;100570.66;5118904;27;20057;-53
2021/06/21 03:09:44;;;;;;;1.20;1.10;;;26.60;50.90;;;30.27;34.53;100563.25;5154178;27;20103;-47
2021/06/21 03:12:11;;;;;;;0.98;0.98;;;26.60;51.00;;;30.32;34.38;100567.28;5135576;27;20124;-48
2021/06/21 03:14:43;;;;;;;0.82;0.82;;;26.60;51.40;;;30.29;34.49;100563.09;5135589;27;20445;-50
2021/06/21 03:17:10;;;;;;;0.90;0.90;;;26.60;50.90;;;30.26;34.58;100547.22;5154601;27;20043;-46
2021/06/21 03:19:38;;;;;;;1.17;1.10;;;26.50;50.90;;;30.23;34.42;100540.31;5154107;27;20039;-49
2021/06/21 03:22:05;;;;;;;0.85;0.85;;;26.60;51.00;;;30.25;34.67;100534.75;5135881;27;20043;-50
2021/06/21 03:24:31;;;;;;;1.25;0.80;;;26.60;51.10;;;30.24;34.35;100525.00;5154010;27;20078;-48
2021/06/21 03:26:57;;;;;;;0.90;0.90;;;26.50;51.00;;;30.24;34.64;100527.69;5135685;27;20054;-49
2021/06/21 03:29:23;;;;;;;1.00;1.00;;;26.50;51.10;;;30.21;34.54;100522.63;5154250;27;20053;-45
2021/06/21 03:31:53;;;;;;;1.00;1.00;;;26.50;51.10;;;30.20;34.71;100529.84;5133683;27;20468;-48
2021/06/21 03:34:23;;;;;;;1.05;0.90;;;26.50;51.10;;;30.16;34.58;100523.09;5135441;27;20043;-50
2021/06/21 03:36:51;;;;;;;1.20;1.10;;;26.50;51.10;;;30.17;34.72;100521.25;5153885;27;20051;-50
2021/06/21 03:39:18;;;;;;;1.00;1.00;;;26.50;51.10;;;30.16;34.61;100522.25;5135571;27;20050;-47
2021/06/21 03:41:45;;;;;;;0.90;0.90;;;26.50;51.10;;;30.15;34.83;100525.97;5153656;27;20396;-47
2021/06/21 03:44:11;;;;;;;1.05;0.95;;;26.50;51.30;;;30.17;34.70;100534.72;5135272;27;20042;-47
2021/06/21 03:46:37;;;;;;;1.67;0.90;;;26.40;51.20;;;30.12;34.64;100521.72;5153298;27;20051;-49
2021/06/21 03:49:03;;;;;;;1.08;1.00;;;26.40;51.20;;;30.10;34.62;100516.53;5117886;27;20051;-49
2021/06/21 03:51:29;;;;;;;1.10;1.00;;;26.40;51.20;;;30.11;34.57;100515.50;5153523;27;20170;-51
2021/06/21 03:53:55;;;;;;;0.80;0.77;;;26.40;51.20;;;30.09;35.02;100506.75;5153724;27;20461;-50
2021/06/21 03:56:20;;;;;;;1.02;1.02;;;26.40;51.30;;;30.08;34.84;100496.13;5153434;27;20062;-46
2021/06/21 03:58:48;;;;;;;0.90;0.90;;;26.40;51.30;;;30.09;34.67;100501.34;5153403;27;20095;-50
2021/06/21 04:01:15;;;;;;;0.90;0.90;;;26.40;51.30;;;30.07;34.94;100513.28;5153499;27;20054;-51
2021/06/21 04:03:40;;;;;;;1.00;1.00;;;26.40;51.30;;;30.06;34.87;100496.28;5153674;27;20042;-49
2021/06/21 04:06:06;;;;;;;0.82;0.82;;;26.30;51.20;;;30.00;34.64;100483.44;5153659;27;20088;-48
2021/06/21 04:08:32;;;;;;;0.80;0.80;;;26.30;51.30;;;30.04;34.98;100498.28;5153480;27;20054;-50
2021/06/21 04:10:58;;;;;;;0.90;0.90;;;26.30;51.40;;;30.01;34.72;100487.00;5153428;27;20449;-46
2021/06/21 04:13:24;;;;;;;0.90;0.90;;;26.30;51.40;;;29.98;34.97;100488.16;5153236;27;20127;-49
2021/06/21 04:15:49;;;;;;;1.00;1.00;;;26.30;51.30;;;30.00;34.83;100488.00;5153308;27;20393;-52
2021/06/21 04:18:17;;;;;;;1.10;1.00;;;26.30;51.40;;;29.99;34.94;100483.59;5156010;27;20491;-50
2021/06/21 04:20:46;;;;;;;1.02;0.93;;;26.30;51.40;;;29.95;35.00;100482.25;5157125;27;20108;-51
2021/06/21 04:23:12;;;;;;;0.98;0.98;;;26.30;51.30;;;29.92;34.90;100480.72;5138218;27;20046;-49
2021/06/21 04:25:38;;;;;;;1.23;1.10;;;26.20;51.20;;;29.93;34.79;100485.13;5156706;27;20101;-46
2021/06/21 04:28:06;;;;;;;1.20;1.10;;;26.20;51.50;;;29.92;34.92;100486.09;5156664;27;20096;-51
2021/06/21 04:30:32;;;;;;;0.80;0.80;;;26.20;51.10;;;29.89;34.85;100473.81;5138081;27;20042;-51
2021/06/21 04:32:58;;;;;;;1.13;1.10;;;26.20;51.60;;;29.89;34.83;100464.91;5156642;27;20054;-47
2021/06/21 04:35:26;;;;;;;0.93;0.90;;;26.20;51.60;;;29.89;34.92;100440.66;5156595;27;20051;-47
2021/06/21 04:37:53;;;;;;;1.27;1.13;;;26.20;51.60;;;29.86;35.09;100417.53;5156376;27;20153;-52
2021/06/21 04:40:24;;;;;;;0.90;0.90;;;26.20;51.60;;;29.87;34.96;100450.72;5156538;27;20055;-48
2021/06/21 04:42:50;;;;;;;1.33;1.00;;;26.20;51.70;;;29.85;35.18;100479.69;5156387;27;20047;-51
2021/06/21 04:45:17;;;;;;;0.85;0.85;;;26.20;51.60;;;29.86;34.81;100484.09;5156433;27;20111;-48
2021/06/21 04:47:43;;;;;;;1.58;1.05;;;26.10;51.40;;;29.82;35.22;100480.00;5156471;27;20069;-50
2021/06/21 04:50:12;;;;;;;0.90;0.90;;;26.10;51.60;;;29.81;35.01;100475.66;5156464;27;20069;-47
2021/06/21 04:52:42;;;;;;;0.80;0.80;;;26.10;51.60;;;29.81;35.29;100472.97;5156284;27;20137;-50
2021/06/21 04:55:12;;;;;;;0.95;0.80;;;26.10;51.60;;;29.78;35.09;100454.41;5156168;27;20399;-52
2021/06/21 04:57:38;;;;;;;0.80;0.80;;;26.10;51.70;;;29.75;35.16;100451.00;5156182;27;20400;-53
2021/06/21 05:00:17;;;;;;;0.90;0.90;;;26.10;51.70;;;29.74;35.27;100462.78;5156278;27;20047;-51
2021/06/21 05:02:43;;;;;;;1.25;0.80;;;26.10;51.70;;;29.76;35.24;100457.25;5156186;27;20103;-48
2021/06/21 05:05:10;;;;;;;1.02;0.93;;;26.10;51.60;;;29.75;35.29;100469.00;5156155;27;20035;-54
2021/06/21 05:07:36;;;;;;;0.93;0.93;;;26.00;51.40;;;29.74;35.18;100462.78;5155945;27;20051;-53
2021/06/21 05:10:05;;;;;;;1.08;0.85;;;26.00;51.60;;;29.70;35.18;100458.75;5156462;27;20054;-53
2021/06/21 05:12:31;;;;;;;1.30;1.05;;;26.00;51.80;;;29.73;35.37;100461.09;5137355;27;20054;-53
2021/06/21 05:14:57;;;;;;;0.90;0.90;;;26.00;51.70;;;29.69;35.23;100457.03;5155982;27;20038;-52
2021/06/21 05:17:23;;;;;;;0.90;0.90;;;26.00;51.80;;;29.70;35.21;100461.44;5155929;27;20043;-54
2021/06/21 05:19:49;;;;;;;1.08;1.02;;;26.00;51.80;;;29.68;35.46;100454.50;5155958;27;20042;-53
2021/06/21 05:22:14;;;;;;;1.88;1.08;;;26.00;51.80;;;29.67;35.20;100456.38;5156131;27;20053;-51
2021/06/21 05:24:40;;;;;;;0.90;0.90;;;26.00;51.90;;;29.68;35.50;100476.06;5155821;27;20548;-53
2021/06/21 05:27:06;;;;;;;0.85;0.85;;;26.00;51.70;;;29.68;35.14;100467.97;5155562;27;20130;-54
2021/06/21 05:29:33;;;;;;;0.90;0.90;;;26.00;51.90;;;29.67;35.34;100450.13;5156005;27;20085;-49
2021/06/21 05:32:01;;;;;;;1.52;0.95;;;26.00;51.90;;;29.65;35.19;100438.66;5155564;27;20377;-53
2021/06/21 05:34:27;;;;;;;1.50;0.85;;;26.00;51.60;;;29.62;35.47;100425.50;5155609;27;20054;-52
2021/06/21 05:36:55;;;;;;;1.00;1.00;;;25.90;51.80;;;29.64;35.40;100404.66;5155637;27;20040;-53
2021/06/21 05:39:21;;;;;;;1.27;0.90;;;25.90;51.70;;;29.60;35.15;100401.44;5155591;27;20053;-48
2021/06/21 05:41:48;;;;;;;0.95;0.73;;;26.00;51.70;;;29.63;35.41;100389.50;5155438;27;20166;-49
2021/06/21 05:44:15;;;;;;;0.80;0.80;;;26.00;51.90;;;29.62;35.34;100377.03;5155407;27;20082;-51
2021/06/21 05:46:41;;;;;;;0.90;0.90;;;25.90;51.90;;;29.60;35.30;100366.41;5155271;27;20062;-49
2021/06/21 05:49:07;;;;;;;1.05;0.80;;;26.00;52.00;;;29.59;35.20;100356.66;5155661;27;20084;-49
2021/06/21 05:51:33;;;;;;;1.00;0.90;;;26.00;52.00;;;29.60;35.22;100362.88;5136323;27;20047;-49
2021/06/21 05:53:59;;;;;;;1.08;0.90;;;26.00;52.00;;;29.59;35.25;100361.19;5155114;27;20045;-52
2021/06/21 05:56:25;;;;;;;1.58;1.10;;;25.90;52.00;;;29.59;35.34;100363.88;5155482;27;20058;-53
2021/06/21 05:58:51;;;;;;;1.15;1.05;;;25.90;51.90;;;29.60;35.51;100361.00;5136167;27;20050;-53
2021/06/21 06:01:16;;;;;;;0.80;0.80;;;25.90;52.00;;;29.55;35.32;100358.84;5154976;27;20047;-48
2021/06/21 06:03:42;;;;;;;1.00;0.85;;;25.90;52.00;;;29.56;35.47;100348.91;5154995;27;20444;-53
2021/06/21 06:06:08;;;;;;;1.17;1.00;;;25.90;52.00;;;29.59;35.66;100350.41;5135287;27;20043;-48
2021/06/21 06:08:34;;;;;;;0.82;0.82;;;25.90;52.00;;;29.57;35.36;100364.06;5155032;27;20043;-50
2021/06/21 06:11:00;;;;;;;1.00;0.90;;;25.90;52.10;;;29.55;35.42;100371.44;5136563;27;20436;-51
2021/06/21 06:13:27;;;;;;;0.80;0.80;;;25.90;52.10;;;29.52;35.38;100361.00;5155422;27;20053;-50
2021/06/21 06:15:53;;;;;;;0.98;0.90;;;25.90;52.10;;;29.55;35.45;100361.53;5154946;27;20050;-50
2021/06/21 06:18:20;;;;;;;0.90;0.90;;;25.90;52.10;;;29.54;35.49;100359.84;5154856;27;20138;-51
2021/06/21 06:20:46;;;;;;;0.80;0.80;;;25.90;52.00;;;29.54;35.68;100348.22;5154798;27;20038;-52
2021/06/21 06:23:12;;;;;;;1.13;1.00;;;25.90;52.10;;;29.54;35.59;100327.50;5154766;27;20075;-49
2021/06/21 06:25:38;;;;;;;0.80;0.80;;;25.90;52.10;;;29.51;35.67;100335.91;5154730;27;20053;-52
2021/06/21 06:28:05;;;;;;;0.85;0.85;;;25.90;52.10;;;29.50;35.34;100326.16;5154664;27;20043;-53
2021/06/21 06:30:32;;;;;;;0.95;0.93;;;25.90;52.10;;;29.54;35.75;100348.22;5154581;27;20095;-51
2021/06/21 06:32:58;;;;;;;1.13;0.80;;;25.80;52.00;;;29.54;35.27;100345.53;5154565;27;20055;-49
2021/06/21 06:35:23;;;;;;;0.80;0.80;;;25.80;52.00;;;29.53;35.23;100349.22;5154616;27;20053;-53
2021/06/21 06:37:49;;;;;;;0.95;0.88;;;25.80;51.90;;;29.52;35.31;100361.00;5154485;27;20052;-45
2021/06/21 06:40:17;;;;;;;1.08;0.98;;;25.80;52.10;;;29.48;35.61;100360.47;5153816;27;20050;-50
2021/06/21 06:42:44;;;;;;;2.08;1.00;;;25.80;52.00;;;29.50;35.64;100365.72;5136515;27;20043;-51
2021/06/21 06:45:10;;;;;;;0.93;0.80;;;25.80;52.20;;;29.48;35.43;100347.00;5154487;27;20415;-47
2021/06/21 06:47:36;;;;;;;1.15;0.90;;;25.80;52.20;;;29.46;35.62;100329.34;5154805;27;20051;-50
2021/06/21 06:50:04;;;;;;;0.75;0.75;;;25.80;52.20;;;29.46;35.48;100330.19;5135711;27;20045;-51
2021/06/21 06:52:31;;;;;;;1.23;0.80;;;25.80;52.00;;;29.46;35.48;100327.47;5154259;27;20042;-49
2021/06/21 06:57:43;;;;;;;1.20;0.80;;;25.80;52.30;;;29.42;35.55;100322.59;5154541;27;20050;-48
2021/06/21 07:00:12;;;;;;;0.70;0.70;;;25.80;52.30;;;29.45;35.44;100333.03;5154414;27;20072;-49
2021/06/21 07:02:38;;;;;;;2.50;0.90;;;25.80;51.80;;;29.44;35.27;100325.97;5154736;27;20047;-53
2021/06/21 07:05:07;;;;;;;1.67;0.98;;;25.80;51.90;;;29.45;35.64;100336.56;5135460;27;20381;-54
2021/06/21 07:07:33;;;;;;;1.20;0.85;;;25.80;52.80;;;29.43;35.65;100337.75;5153978;27;20133;-50
2021/06/21 07:09:59;;;;;;;0.70;0.70;;;25.80;52.30;;;29.42;35.69;100352.22;5154192;27;20085;-51
2021/06/21 07:12:25;;;;;;;0.88;0.70;;;25.80;52.30;;;29.44;35.66;100363.69;5154053;27;20047;-47
2021/06/21 07:14:51;;;;;;;0.73;0.70;;;25.70;52.10;;;29.43;35.66;100370.91;5154007;27;20046;-48
2021/06/21 07:17:17;;;;;;;1.08;0.82;;;25.70;52.20;;;29.41;35.57;100377.47;5154262;27;20058;-52
2021/06/21 07:19:42;;;;;;;1.10;0.98;;;25.70;52.20;;;29.38;35.46;100375.94;5153855;27;20042;-46
2021/06/21 07:22:08;;;;;;;1.17;1.08;;;25.70;52.10;;;29.36;35.48;100376.09;5154061;27;20045;-52
2021/06/21 07:24:35;;;;;;;1.23;1.10;;;25.70;52.40;;;29.38;35.80;100371.38;5153961;27;20075;-51
2021/06/21 07:27:02;;;;;;;1.02;0.95;;;25.70;52.30;;;29.37;35.31;100360.81;5153797;27;20050;-49
2021/06/21 07:29:28;;;;;;;0.70;0.70;;;25.60;51.80;;;29.34;35.57;100355.72;5153852;27;20066;-50
2021/06/21 07:31:54;;;;;;;0.90;0.90;;;25.70;52.30;;;29.37;35.67;100350.03;5153886;27;20500;-51
2021/06/21 07:34:20;;;;;;;1.00;0.90;;;25.70;52.20;;;29.37;35.69;100350.03;5154171;27;20129;-48
2021/06/21 07:36:46;;;;;;;1.25;0.80;;;25.70;52.30;;;29.37;35.71;100350.03;5153619;27;20121;-47
2021/06/21 07:39:12;;;;;;;0.95;0.85;;;25.70;52.20;;;29.38;35.71;100349.00;5153713;27;20489;-54
2021/06/21 07:41:39;;;;;;;1.02;0.98;;;25.70;52.40;;;29.37;35.58;100350.03;5135589;27;20047;-49
2021/06/21 07:44:05;;;;;;;2.17;0.70;;;25.70;52.40;;;29.37;35.54;100348.16;5153609;27;20407;-49
2021/06/21 07:46:32;;;;;;;0.75;0.73;;;25.70;52.30;;;29.35;35.75;100354.72;5153917;27;20082;-53
2021/06/21 07:48:59;;;;;;;1.80;1.00;;;25.60;52.30;;;29.30;35.80;100357.91;5153443;27;20051;-47
2021/06/21 07:51:25;;;;;;;1.65;0.90;;;25.70;52.40;;;29.33;35.54;100381.81;5154993;27;20397;-47
2021/06/21 07:53:53;;;;;;;1.80;0.90;;;25.70;52.30;;;29.34;35.84;100388.06;5156973;27;20051;-49
2021/06/21 07:56:20;;;;;;;0.82;0.80;;;25.70;52.50;;;29.33;35.70;100389.03;5157109;27;20057;-47
2021/06/21 07:58:46;;;;;;;1.02;0.88;;;25.60;52.50;;;29.31;35.97;100386.50;5136261;27;20062;-50
2021/06/21 08:01:12;;;;;;;1.30;0.80;;;25.60;52.50;;;29.33;35.67;100394.44;5157104;27;20046;-50
2021/06/21 08:03:42;;;;;;;0.70;0.70;;;25.60;52.50;;;29.31;35.64;100408.06;5157569;27;20119;-55
2021/06/21 08:06:10;;;;;;;1.00;0.90;;;25.70;52.60;;;29.30;35.72;100395.63;5157443;27;20046;-48
2021/06/21 08:08:38;;;;;;;1.00;0.85;;;25.60;52.50;;;29.29;35.74;100393.91;5156800;27;20086;-48
2021/06/21 08:11:04;;;;;;;1.02;0.70;;;25.60;52.50;;;29.28;35.91;100394.91;5157088;27;20042;-49
2021/06/21 08:13:30;;;;;;;0.70;0.70;;;25.60;52.50;;;29.31;35.80;100396.44;5156873;27;20051;-53
2021/06/21 08:15:56;;;;;;;1.20;0.90;;;25.60;52.50;;;29.30;35.68;100397.44;5156881;27;20107;-52
2021/06/21 08:18:22;;;;;;;1.17;1.00;;;25.70;52.50;;;29.30;35.79;100389.38;5156869;27;20452;-50
2021/06/21 08:20:49;;;;;;;0.70;0.70;;;25.60;52.50;;;29.30;35.73;100395.63;5156704;27;20053;-49
2021/06/21 08:23:18;;;;;;;0.95;0.80;;;25.60;52.50;;;29.31;35.91;100402.66;5157071;27;20042;-50
2021/06/21 08:25:45;;;;;;;1.00;0.90;;;25.60;52.50;;;29.30;35.67;100392.91;5156560;27;20459;-48
2021/06/21 08:28:11;;;;;;;0.98;0.70;;;25.60;52.50;;;29.28;35.66;100388.69;5156979;27;20047;-46
2021/06/21 08:30:38;;;;;;;0.80;0.80;;;25.60;52.50;;;29.29;35.75;100393.06;5157032;27;20539;-50
2021/06/21 08:33:05;;;;;;;2.28;1.15;;;25.60;52.50;;;29.31;35.95;100385.69;5156601;27;20047;-47
2021/06/21 08:35:31;;;;;;;0.90;0.70;;;25.60;52.50;;;29.32;35.86;100388.22;5138034;27;20073;-50
2021/06/21 08:37:57;;;;;;;0.80;0.80;;;25.60;52.50;;;29.30;35.72;100384.84;5156578;27;20487;-46
2021/06/21 08:40:24;;;;;;;0.80;0.80;;;25.60;52.50;;;29.30;36.00;100390.22;5157006;27;20050;-49
2021/06/21 08:42:51;;;;;;;0.80;0.80;;;25.60;52.50;;;29.33;35.60;100383.66;5156425;27;20047;-50
2021/06/21 08:45:18;;;;;;;0.75;0.60;;;25.60;52.50;;;29.33;35.87;100389.03;5156394;27;20183;-52
2021/06/21 08:47:44;;;;;;;1.40;0.80;;;25.70;52.50;;;29.32;35.94;100387.34;5156147;27;20051;-50
2021/06/21 08:50:14;;;;;;;1.02;0.90;;;25.60;52.50;;;29.29;35.73;100385.84;5156712;27;20047;-48
2021/06/21 08:52:43;;;;;;;0.80;0.80;;;25.70;52.50;;;29.34;35.88;100391.56;5137845;27;20142;-50
2021/06/21 08:55:13;;;;;;;1.00;0.93;;;25.60;52.40;;;29.33;35.80;100391.75;5156624;27;20061;-51
2021/06/21 08:57:43;;;;;;;0.80;0.80;;;25.70;52.50;;;29.33;35.85;100391.75;5156342;27;20050;-47
2021/06/21 09:00:12;;;;;;;3.17;0.90;;;25.70;52.50;;;29.37;35.48;100395.81;5156233;27;20445;-49
2021/06/21 09:02:38;;;;;;;0.98;0.80;;;25.70;52.50;;;29.38;35.61;100390.22;5136810;27;20047;-48
2021/06/21 09:05:09;;;;;;;1.23;0.77;;;25.70;52.40;;;29.36;35.88;100388.72;5156417;27;20055;-50
2021/06/21 09:07:36;;;;;;;3.05;1.05;;;25.70;52.40;;;29.35;35.82;100390.59;5156121;27;20075;-49
2021/06/21 09:10:16;;;;;;;0.80;0.80;;;25.70;52.50;;;29.36;35.52;100397.63;5156432;27;20054;-51
2021/06/21 09:12:41;;;;;;;0.98;0.90;;;25.60;52.40;;;29.38;35.54;100394.78;5137334;27;20418;-49
2021/06/21 09:15:09;;;;;;;1.27;0.90;;;25.70;52.50;;;29.35;35.67;100390.59;5155831;27;20042;-50
2021/06/21 09:17:38;;;;;;;0.80;0.80;;;25.70;52.40;;;29.36;35.63;100400.34;5137289;27;20560;-47
2021/06/21 09:20:07;;;;;;;0.65;0.65;;;25.70;52.50;;;29.37;35.78;100395.81;5155888;27;20065;-46
2021/06/21 09:22:40;;;;;;;2.30;0.80;;;25.70;52.40;;;29.34;35.58;100378.13;5155875;27;20066;-48
2021/06/21 09:25:16;;;;;;;1.55;0.93;;;25.70;52.40;;;29.36;35.61;100384.16;5155842;27;20059;-53
2021/06/21 09:28:03;;;;;;;1.00;0.70;;;25.70;52.40;;;29.32;35.62;100371.19;5155817;27;20050;-48
2021/06/21 09:30:32;;;;;;;2.53;0.75;;;25.70;52.40;;;29.36;35.83;100377.94;5134179;27;20043;-52
2021/06/21 09:33:00;;;;;;;1.77;0.93;;;25.70;52.40;;;29.37;35.53;100371.56;5155668;27;20046;-50
2021/06/21 09:35:26;;;;;;;1.40;1.02;;;25.60;52.30;;;29.38;35.68;100370.53;5155547;27;20046;-49
2021/06/21 09:37:53;;;;;;;1.73;0.80;;;25.70;52.40;;;29.36;35.63;100376.09;5155478;27;20076;-50
2021/06/21 09:40:38;;;;;;;0.77;0.77;;;25.70;52.40;;;29.35;35.50;100363.66;5155427;27;20050;-51
2021/06/21 09:43:25;;;;;;;0.98;0.70;;;25.70;52.40;;;29.36;35.55;100369.88;5156064;27;20083;-46
2021/06/21 09:46:05;;;;;;;0.70;0.70;;;25.70;52.40;;;29.36;35.58;100372.56;5155064;27;20057;-49
2021/06/21 09:48:52;;;;;;;2.20;0.98;;;25.70;52.30;;;29.33;35.55;100372.88;5155667;27;20043;-52
2021/06/21 09:51:39;;;;;;;0.98;0.90;;;25.70;52.40;;;29.35;35.71;100370.88;5155628;27;20058;-46
2021/06/21 09:54:13;;;;;;;0.70;0.68;;;25.70;52.40;;;29.33;35.55;100379.09;5155176;27;20084;-51
2021/06/21 09:56:49;;;;;;;1.40;0.60;;;25.70;52.40;;;29.37;35.53;100382.34;5136557;27;20046;-52
2021/06/21 09:59:36;;;;;;;2.17;0.80;;;25.70;52.40;;;29.35;35.52;100379.81;5155768;27;20046;-50
2021/06/21 10:02:22;;;;;;;1.00;0.90;;;25.70;52.40;;;29.35;35.63;100369.03;5136365;27;20046;-46
2021/06/21 10:04:48;;;;;;;0.80;0.57;;;25.70;52.30;;;29.40;35.54;100370.38;5155248;27;20485;-51
2021/06/21 10:07:32;;;;;;;2.60;1.00;;;25.70;52.30;;;29.37;35.77;100372.41;5155029;27;20045;-48
2021/06/21 10:10:11;;;;;;;1.00;0.80;;;25.70;52.30;;;29.40;35.78;100368.53;5155644;27;20047;-52
2021/06/21 10:12:39;;;;;;;0.93;0.93;;;25.70;52.20;;;29.43;35.56;100370.06;5155538;27;20043;-50
2021/06/21 10:15:10;;;;;;;0.98;0.73;;;25.70;52.20;;;29.44;35.42;100382.53;5135600;27;20075;-49
2021/06/21 10:17:36;;;;;;;2.22;0.73;;;25.70;52.20;;;29.44;35.73;100371.78;5154969;27;20034;-54
2021/06/21 10:20:05;;;;;;;1.85;0.70;;;25.70;52.20;;;29.44;35.67;100375.28;5155152;27;20046;-46
2021/06/21 10:22:31;;;;;;;0.70;0.70;;;25.70;52.20;;;29.41;35.41;100369.41;5154735;27;20054;-48